sensor_id;sensor_type;location;lat;lon;timestamp;P1;durP1;ratioP1;P2;durP2;ratioP2
69623;SDS011;56843;52.020;5.670;2022-08-21T00:01:24;10.37;;;2.87;;
69623;SDS011;56843;52.020;5.670;2022-08-21T00:03:03;10.00;;;3.58;;
69623;SDS011;56843;52.020;5.670;2022-08-21T00:04:35;13.90;;;3.72;;
69623;SDS011;56843;52.020;5.670;2022-08-21T00:06:05;12.37;;;3.13;;
69623;SDS011;56843;52.020;5.670;2022-08-21T00:07:36;10.33;;;3.37;;
69623;SDS011;56843;52.020;5.670;2022-08-21T00:09:07;8.07;;;2.85;;
69623;SDS011;56843;52.020;5.670;2022-08-21T00:10:39;7.80;;;3.17;;
69623;SDS011;56843;52.020;5.670;2022-08-21T00:12:10;13.98;;;3.30;;
69623;SDS011;56843;52.020;5.670;2022-08-21T00:13:41;10.13;;;3.43;;
69623;SDS011;56843;52.020;5.670;2022-08-21T00:15:13;7.53;;;3.72;;
69623;SDS011;56843;52.020;5.670;2022-08-21T00:16:47;9.40;;;3.23;;
69623;SDS011;56843;52.020;5.670;2022-08-21T00:18:18;7.87;;;3.07;;
69623;SDS011;56843;52.020;5.670;2022-08-21T00:19:49;8.95;;;3.47;;
69623;SDS011;56843;52.020;5.670;2022-08-21T00:21:19;10.25;;;3.55;;
69623;SDS011;56843;52.020;5.670;2022-08-21T00:22:50;7.00;;;3.10;;
69623;SDS011;56843;52.020;5.670;2022-08-21T00:24:21;9.13;;;3.50;;
69623;SDS011;56843;52.020;5.670;2022-08-21T00:25:52;8.55;;;3.22;;
69623;SDS011;56843;52.020;5.670;2022-08-21T00:27:23;11.50;;;3.23;;
69623;SDS011;56843;52.020;5.670;2022-08-21T00:28:53;7.97;;;3.47;;
69623;SDS011;56843;52.020;5.670;2022-08-21T00:30:25;8.90;;;3.67;;
69623;SDS011;56843;52.020;5.670;2022-08-21T00:31:56;8.45;;;3.70;;
69623;SDS011;56843;52.020;5.670;2022-08-21T00:33:27;9.68;;;3.42;;
69623;SDS011;56843;52.020;5.670;2022-08-21T00:34:57;11.87;;;3.57;;
69623;SDS011;56843;52.020;5.670;2022-08-21T00:36:28;8.52;;;3.60;;
69623;SDS011;56843;52.020;5.670;2022-08-21T00:37:59;14.00;;;4.20;;
69623;SDS011;56843;52.020;5.670;2022-08-21T00:39:30;10.60;;;3.78;;
69623;SDS011;56843;52.020;5.670;2022-08-21T00:41:01;9.27;;;4.33;;
69623;SDS011;56843;52.020;5.670;2022-08-21T00:42:33;10.57;;;4.20;;
69623;SDS011;56843;52.020;5.670;2022-08-21T00:44:06;10.27;;;4.35;;
69623;SDS011;56843;52.020;5.670;2022-08-21T00:45:38;11.23;;;3.90;;
69623;SDS011;56843;52.020;5.670;2022-08-21T00:47:08;8.20;;;3.83;;
69623;SDS011;56843;52.020;5.670;2022-08-21T00:48:39;7.27;;;3.27;;
69623;SDS011;56843;52.020;5.670;2022-08-21T00:50:10;10.50;;;4.33;;
69623;SDS011;56843;52.020;5.670;2022-08-21T00:51:44;11.10;;;4.37;;
69623;SDS011;56843;52.020;5.670;2022-08-21T00:53:19;10.32;;;4.00;;
69623;SDS011;56843;52.020;5.670;2022-08-21T00:54:49;9.82;;;4.32;;
69623;SDS011;56843;52.020;5.670;2022-08-21T00:56:21;8.80;;;4.53;;
69623;SDS011;56843;52.020;5.670;2022-08-21T00:57:55;10.18;;;4.15;;
69623;SDS011;56843;52.020;5.670;2022-08-21T00:59:29;8.40;;;3.83;;
69623;SDS011;56843;52.020;5.670;2022-08-21T01:01:04;9.47;;;3.67;;
69623;SDS011;56843;52.020;5.670;2022-08-21T01:02:37;13.48;;;3.85;;
69623;SDS011;56843;52.020;5.670;2022-08-21T01:04:07;7.35;;;3.50;;
69623;SDS011;56843;52.020;5.670;2022-08-21T01:05:38;10.53;;;3.50;;
69623;SDS011;56843;52.020;5.670;2022-08-21T01:07:08;14.48;;;4.05;;
69623;SDS011;56843;52.020;5.670;2022-08-21T01:08:39;10.20;;;4.00;;
69623;SDS011;56843;52.020;5.670;2022-08-21T01:10:10;10.53;;;4.00;;
69623;SDS011;56843;52.020;5.670;2022-08-21T01:11:42;10.38;;;3.70;;
69623;SDS011;56843;52.020;5.670;2022-08-21T01:13:14;9.38;;;3.75;;
69623;SDS011;56843;52.020;5.670;2022-08-21T01:14:47;9.43;;;4.17;;
69623;SDS011;56843;52.020;5.670;2022-08-21T01:16:18;9.97;;;3.77;;
69623;SDS011;56843;52.020;5.670;2022-08-21T01:17:51;12.93;;;4.20;;
69623;SDS011;56843;52.020;5.670;2022-08-21T01:19:24;9.13;;;3.90;;
69623;SDS011;56843;52.020;5.670;2022-08-21T01:21:08;10.07;;;4.25;;
69623;SDS011;56843;52.020;5.670;2022-08-21T01:22:43;7.68;;;3.47;;
69623;SDS011;56843;52.020;5.670;2022-08-21T01:24:13;10.17;;;4.03;;
69623;SDS011;56843;52.020;5.670;2022-08-21T01:25:44;9.10;;;4.28;;
69623;SDS011;56843;52.020;5.670;2022-08-21T01:27:15;11.55;;;4.28;;
69623;SDS011;56843;52.020;5.670;2022-08-21T01:28:55;9.37;;;4.37;;
69623;SDS011;56843;52.020;5.670;2022-08-21T01:30:30;12.32;;;4.50;;
69623;SDS011;56843;52.020;5.670;2022-08-21T01:32:07;11.43;;;4.13;;
69623;SDS011;56843;52.020;5.670;2022-08-21T01:33:40;11.10;;;3.97;;
69623;SDS011;56843;52.020;5.670;2022-08-21T01:35:11;15.32;;;4.47;;
69623;SDS011;56843;52.020;5.670;2022-08-21T01:36:43;7.68;;;4.00;;
69623;SDS011;56843;52.020;5.670;2022-08-21T01:38:15;10.35;;;4.38;;
69623;SDS011;56843;52.020;5.670;2022-08-21T01:39:46;11.02;;;4.70;;
69623;SDS011;56843;52.020;5.670;2022-08-21T01:41:17;12.20;;;3.67;;
69623;SDS011;56843;52.020;5.670;2022-08-21T01:42:48;11.27;;;4.30;;
69623;SDS011;56843;52.020;5.670;2022-08-21T01:44:22;11.17;;;4.00;;
69623;SDS011;56843;52.020;5.670;2022-08-21T01:45:53;10.10;;;4.18;;
69623;SDS011;56843;52.020;5.670;2022-08-21T01:47:24;8.93;;;4.20;;
69623;SDS011;56843;52.020;5.670;2022-08-21T01:48:55;7.87;;;4.07;;
69623;SDS011;56843;52.020;5.670;2022-08-21T01:50:25;9.30;;;4.37;;
69623;SDS011;56843;52.020;5.670;2022-08-21T01:51:55;10.90;;;4.35;;
69623;SDS011;56843;52.020;5.670;2022-08-21T01:53:26;10.90;;;4.03;;
69623;SDS011;56843;52.020;5.670;2022-08-21T01:54:57;10.95;;;4.85;;
69623;SDS011;56843;52.020;5.670;2022-08-21T01:56:27;9.60;;;4.57;;
69623;SDS011;56843;52.020;5.670;2022-08-21T01:57:58;10.75;;;4.40;;
69623;SDS011;56843;52.020;5.670;2022-08-21T01:59:29;10.68;;;4.15;;
69623;SDS011;56843;52.020;5.670;2022-08-21T02:01:00;12.83;;;4.73;;
69623;SDS011;56843;52.020;5.670;2022-08-21T02:02:31;10.57;;;4.47;;
69623;SDS011;56843;52.020;5.670;2022-08-21T02:04:02;9.80;;;4.00;;
69623;SDS011;56843;52.020;5.670;2022-08-21T02:05:32;11.85;;;4.38;;
69623;SDS011;56843;52.020;5.670;2022-08-21T02:07:03;11.20;;;4.90;;
69623;SDS011;56843;52.020;5.670;2022-08-21T02:08:34;10.35;;;4.93;;
69623;SDS011;56843;52.020;5.670;2022-08-21T02:10:05;12.60;;;4.83;;
69623;SDS011;56843;52.020;5.670;2022-08-21T02:11:37;11.40;;;4.47;;
69623;SDS011;56843;52.020;5.670;2022-08-21T02:13:11;8.23;;;4.47;;
69623;SDS011;56843;52.020;5.670;2022-08-21T02:14:41;12.30;;;4.40;;
69623;SDS011;56843;52.020;5.670;2022-08-21T02:16:12;14.32;;;4.55;;
69623;SDS011;56843;52.020;5.670;2022-08-21T02:17:46;8.70;;;4.05;;
69623;SDS011;56843;52.020;5.670;2022-08-21T02:19:18;15.75;;;4.70;;
69623;SDS011;56843;52.020;5.670;2022-08-21T02:20:49;12.40;;;4.60;;
69623;SDS011;56843;52.020;5.670;2022-08-21T02:22:19;11.82;;;5.03;;
69623;SDS011;56843;52.020;5.670;2022-08-21T02:23:50;15.47;;;4.97;;
69623;SDS011;56843;52.020;5.670;2022-08-21T02:25:21;10.50;;;4.73;;
69623;SDS011;56843;52.020;5.670;2022-08-21T02:26:53;10.73;;;5.20;;
69623;SDS011;56843;52.020;5.670;2022-08-21T02:28:23;14.10;;;5.03;;
69623;SDS011;56843;52.020;5.670;2022-08-21T02:29:55;11.13;;;4.87;;
69623;SDS011;56843;52.020;5.670;2022-08-21T02:31:26;13.20;;;5.60;;
69623;SDS011;56843;52.020;5.670;2022-08-21T02:32:57;16.77;;;5.75;;
69623;SDS011;56843;52.020;5.670;2022-08-21T02:34:28;10.83;;;5.07;;
69623;SDS011;56843;52.020;5.670;2022-08-21T02:35:58;12.00;;;6.17;;
69623;SDS011;56843;52.020;5.670;2022-08-21T02:37:29;14.98;;;4.90;;
69623;SDS011;56843;52.020;5.670;2022-08-21T02:39:00;12.43;;;5.38;;
69623;SDS011;56843;52.020;5.670;2022-08-21T02:40:32;15.90;;;5.77;;
69623;SDS011;56843;52.020;5.670;2022-08-21T02:42:05;18.30;;;5.55;;
69623;SDS011;56843;52.020;5.670;2022-08-21T02:43:35;12.02;;;5.60;;
69623;SDS011;56843;52.020;5.670;2022-08-21T02:45:07;9.37;;;4.60;;
69623;SDS011;56843;52.020;5.670;2022-08-21T02:46:38;11.10;;;5.35;;
69623;SDS011;56843;52.020;5.670;2022-08-21T02:48:09;13.57;;;5.45;;
69623;SDS011;56843;52.020;5.670;2022-08-21T02:49:42;11.47;;;5.23;;
69623;SDS011;56843;52.020;5.670;2022-08-21T02:51:14;14.45;;;5.60;;
69623;SDS011;56843;52.020;5.670;2022-08-21T02:52:47;14.68;;;5.85;;
69623;SDS011;56843;52.020;5.670;2022-08-21T02:54:19;18.23;;;6.03;;
69623;SDS011;56843;52.020;5.670;2022-08-21T02:55:50;16.67;;;5.90;;
69623;SDS011;56843;52.020;5.670;2022-08-21T02:57:21;12.60;;;5.72;;
69623;SDS011;56843;52.020;5.670;2022-08-21T02:58:52;15.90;;;6.70;;
69623;SDS011;56843;52.020;5.670;2022-08-21T03:00:23;19.83;;;6.57;;
69623;SDS011;56843;52.020;5.670;2022-08-21T03:01:55;15.30;;;6.40;;
69623;SDS011;56843;52.020;5.670;2022-08-21T03:03:27;16.67;;;6.97;;
69623;SDS011;56843;52.020;5.670;2022-08-21T03:04:58;16.33;;;6.90;;
69623;SDS011;56843;52.020;5.670;2022-08-21T03:06:28;17.53;;;6.80;;
69623;SDS011;56843;52.020;5.670;2022-08-21T03:08:00;22.33;;;6.30;;
69623;SDS011;56843;52.020;5.670;2022-08-21T03:09:33;14.03;;;6.23;;
69623;SDS011;56843;52.020;5.670;2022-08-21T03:11:03;16.80;;;6.05;;
69623;SDS011;56843;52.020;5.670;2022-08-21T03:12:35;12.13;;;5.65;;
69623;SDS011;56843;52.020;5.670;2022-08-21T03:14:06;16.60;;;7.00;;
69623;SDS011;56843;52.020;5.670;2022-08-21T03:15:36;23.95;;;6.72;;
69623;SDS011;56843;52.020;5.670;2022-08-21T03:17:07;10.63;;;6.07;;
69623;SDS011;56843;52.020;5.670;2022-08-21T03:18:38;16.27;;;6.50;;
69623;SDS011;56843;52.020;5.670;2022-08-21T03:20:09;14.27;;;7.10;;
69623;SDS011;56843;52.020;5.670;2022-08-21T03:21:40;20.10;;;7.03;;
69623;SDS011;56843;52.020;5.670;2022-08-21T03:23:11;12.15;;;6.18;;
69623;SDS011;56843;52.020;5.670;2022-08-21T03:24:42;24.70;;;7.28;;
69623;SDS011;56843;52.020;5.670;2022-08-21T03:26:12;16.20;;;6.60;;
69623;SDS011;56843;52.020;5.670;2022-08-21T03:27:43;15.05;;;6.45;;
69623;SDS011;56843;52.020;5.670;2022-08-21T03:29:14;17.40;;;6.77;;
69623;SDS011;56843;52.020;5.670;2022-08-21T03:30:45;16.30;;;6.20;;
69623;SDS011;56843;52.020;5.670;2022-08-21T03:32:18;14.27;;;6.10;;
69623;SDS011;56843;52.020;5.670;2022-08-21T03:33:49;14.97;;;6.70;;
69623;SDS011;56843;52.020;5.670;2022-08-21T03:35:20;15.02;;;6.22;;
69623;SDS011;56843;52.020;5.670;2022-08-21T03:36:51;9.68;;;5.57;;
69623;SDS011;56843;52.020;5.670;2022-08-21T03:38:21;16.20;;;6.30;;
69623;SDS011;56843;52.020;5.670;2022-08-21T03:39:52;15.20;;;6.63;;
69623;SDS011;56843;52.020;5.670;2022-08-21T03:41:22;18.13;;;7.07;;
69623;SDS011;56843;52.020;5.670;2022-08-21T03:42:53;15.60;;;6.23;;
69623;SDS011;56843;52.020;5.670;2022-08-21T03:44:24;17.13;;;6.93;;
69623;SDS011;56843;52.020;5.670;2022-08-21T03:45:54;16.27;;;6.90;;
69623;SDS011;56843;52.020;5.670;2022-08-21T03:47:25;17.52;;;7.57;;
69623;SDS011;56843;52.020;5.670;2022-08-21T03:48:56;12.13;;;6.60;;
69623;SDS011;56843;52.020;5.670;2022-08-21T03:50:28;23.10;;;7.88;;
69623;SDS011;56843;52.020;5.670;2022-08-21T03:52:01;19.20;;;7.05;;
69623;SDS011;56843;52.020;5.670;2022-08-21T03:53:32;12.80;;;6.85;;
69623;SDS011;56843;52.020;5.670;2022-08-21T03:55:02;19.17;;;7.37;;
69623;SDS011;56843;52.020;5.670;2022-08-21T03:56:33;12.40;;;6.57;;
69623;SDS011;56843;52.020;5.670;2022-08-21T03:58:03;12.03;;;5.10;;
69623;SDS011;56843;52.020;5.670;2022-08-21T03:59:34;17.17;;;6.67;;
69623;SDS011;56843;52.020;5.670;2022-08-21T04:01:05;14.90;;;7.20;;
69623;SDS011;56843;52.020;5.670;2022-08-21T04:02:36;13.52;;;6.30;;
69623;SDS011;56843;52.020;5.670;2022-08-21T04:04:06;16.57;;;6.47;;
69623;SDS011;56843;52.020;5.670;2022-08-21T04:05:37;15.50;;;6.53;;
69623;SDS011;56843;52.020;5.670;2022-08-21T04:07:07;13.40;;;6.53;;
69623;SDS011;56843;52.020;5.670;2022-08-21T04:08:38;13.00;;;5.78;;
69623;SDS011;56843;52.020;5.670;2022-08-21T04:10:08;12.47;;;6.07;;
69623;SDS011;56843;52.020;5.670;2022-08-21T04:11:39;14.88;;;5.93;;
69623;SDS011;56843;52.020;5.670;2022-08-21T04:13:09;15.57;;;6.03;;
69623;SDS011;56843;52.020;5.670;2022-08-21T04:14:40;14.07;;;6.57;;
69623;SDS011;56843;52.020;5.670;2022-08-21T04:16:12;12.00;;;5.63;;
69623;SDS011;56843;52.020;5.670;2022-08-21T04:17:42;18.08;;;6.20;;
69623;SDS011;56843;52.020;5.670;2022-08-21T04:19:13;10.95;;;5.72;;
69623;SDS011;56843;52.020;5.670;2022-08-21T04:20:45;12.70;;;6.43;;
69623;SDS011;56843;52.020;5.670;2022-08-21T04:22:19;18.60;;;6.60;;
69623;SDS011;56843;52.020;5.670;2022-08-21T04:23:49;12.40;;;6.15;;
69623;SDS011;56843;52.020;5.670;2022-08-21T04:25:21;13.47;;;6.17;;
69623;SDS011;56843;52.020;5.670;2022-08-21T04:26:52;11.18;;;6.32;;
69623;SDS011;56843;52.020;5.670;2022-08-21T04:28:23;14.70;;;6.37;;
69623;SDS011;56843;52.020;5.670;2022-08-21T04:29:55;9.23;;;5.63;;
69623;SDS011;56843;52.020;5.670;2022-08-21T04:31:26;11.70;;;5.70;;
69623;SDS011;56843;52.020;5.670;2022-08-21T04:32:58;11.30;;;5.60;;
69623;SDS011;56843;52.020;5.670;2022-08-21T04:34:29;13.60;;;5.47;;
69623;SDS011;56843;52.020;5.670;2022-08-21T04:35:59;16.77;;;6.63;;
69623;SDS011;56843;52.020;5.670;2022-08-21T04:37:30;19.15;;;5.85;;
69623;SDS011;56843;52.020;5.670;2022-08-21T04:39:01;11.32;;;5.70;;
69623;SDS011;56843;52.020;5.670;2022-08-21T04:40:31;15.87;;;6.00;;
69623;SDS011;56843;52.020;5.670;2022-08-21T04:42:02;10.93;;;5.53;;
69623;SDS011;56843;52.020;5.670;2022-08-21T04:43:32;14.57;;;5.65;;
69623;SDS011;56843;52.020;5.670;2022-08-21T04:45:03;11.07;;;5.67;;
69623;SDS011;56843;52.020;5.670;2022-08-21T04:46:34;12.57;;;5.50;;
69623;SDS011;56843;52.020;5.670;2022-08-21T04:48:05;16.77;;;6.20;;
69623;SDS011;56843;52.020;5.670;2022-08-21T04:49:39;13.85;;;6.07;;
69623;SDS011;56843;52.020;5.670;2022-08-21T04:51:10;16.47;;;6.33;;
69623;SDS011;56843;52.020;5.670;2022-08-21T04:52:46;9.07;;;5.22;;
69623;SDS011;56843;52.020;5.670;2022-08-21T04:54:18;15.23;;;6.35;;
69623;SDS011;56843;52.020;5.670;2022-08-21T04:55:50;13.40;;;5.85;;
69623;SDS011;56843;52.020;5.670;2022-08-21T04:57:23;12.23;;;5.80;;
69623;SDS011;56843;52.020;5.670;2022-08-21T04:58:54;14.67;;;6.27;;
69623;SDS011;56843;52.020;5.670;2022-08-21T05:00:27;14.48;;;5.88;;
69623;SDS011;56843;52.020;5.670;2022-08-21T05:01:57;17.27;;;6.03;;
69623;SDS011;56843;52.020;5.670;2022-08-21T05:03:29;12.30;;;5.45;;
69623;SDS011;56843;52.020;5.670;2022-08-21T05:05:03;15.65;;;6.85;;
69623;SDS011;56843;52.020;5.670;2022-08-21T05:06:36;16.17;;;7.13;;
69623;SDS011;56843;52.020;5.670;2022-08-21T05:08:12;16.92;;;7.05;;
69623;SDS011;56843;52.020;5.670;2022-08-21T05:09:45;19.73;;;6.88;;
69623;SDS011;56843;52.020;5.670;2022-08-21T05:11:16;12.23;;;6.80;;
69623;SDS011;56843;52.020;5.670;2022-08-21T05:12:46;16.60;;;6.63;;
69623;SDS011;56843;52.020;5.670;2022-08-21T05:14:17;12.60;;;6.30;;
69623;SDS011;56843;52.020;5.670;2022-08-21T05:15:49;15.65;;;7.57;;
69623;SDS011;56843;52.020;5.670;2022-08-21T05:17:19;15.43;;;7.63;;
69623;SDS011;56843;52.020;5.670;2022-08-21T05:18:50;20.70;;;8.40;;
69623;SDS011;56843;52.020;5.670;2022-08-21T05:20:21;15.25;;;8.02;;
69623;SDS011;56843;52.020;5.670;2022-08-21T05:21:51;16.13;;;7.47;;
69623;SDS011;56843;52.020;5.670;2022-08-21T05:23:22;14.20;;;7.70;;
69623;SDS011;56843;52.020;5.670;2022-08-21T05:24:52;14.55;;;7.45;;
69623;SDS011;56843;52.020;5.670;2022-08-21T05:26:23;14.63;;;6.90;;
69623;SDS011;56843;52.020;5.670;2022-08-21T05:27:53;13.63;;;7.27;;
69623;SDS011;56843;52.020;5.670;2022-08-21T05:29:24;11.83;;;6.17;;
69623;SDS011;56843;52.020;5.670;2022-08-21T05:30:54;14.07;;;7.80;;
69623;SDS011;56843;52.020;5.670;2022-08-21T05:32:25;18.03;;;6.87;;
69623;SDS011;56843;52.020;5.670;2022-08-21T05:33:57;17.20;;;7.05;;
69623;SDS011;56843;52.020;5.670;2022-08-21T05:35:28;16.40;;;8.10;;
69623;SDS011;56843;52.020;5.670;2022-08-21T05:36:59;16.58;;;7.60;;
69623;SDS011;56843;52.020;5.670;2022-08-21T05:38:30;19.63;;;8.50;;
69623;SDS011;56843;52.020;5.670;2022-08-21T05:40:00;18.20;;;8.10;;
69623;SDS011;56843;52.020;5.670;2022-08-21T05:41:32;23.35;;;7.65;;
69623;SDS011;56843;52.020;5.670;2022-08-21T05:43:03;14.40;;;8.40;;
69623;SDS011;56843;52.020;5.670;2022-08-21T05:44:33;18.38;;;8.50;;
69623;SDS011;56843;52.020;5.670;2022-08-21T05:46:07;17.58;;;7.95;;
69623;SDS011;56843;52.020;5.670;2022-08-21T05:47:38;16.97;;;7.93;;
69623;SDS011;56843;52.020;5.670;2022-08-21T05:49:10;15.68;;;7.90;;
69623;SDS011;56843;52.020;5.670;2022-08-21T05:50:41;18.30;;;8.15;;
69623;SDS011;56843;52.020;5.670;2022-08-21T05:52:17;15.25;;;6.95;;
69623;SDS011;56843;52.020;5.670;2022-08-21T05:53:49;18.25;;;7.45;;
69623;SDS011;56843;52.020;5.670;2022-08-21T05:55:20;20.63;;;7.70;;
69623;SDS011;56843;52.020;5.670;2022-08-21T05:56:50;16.73;;;7.20;;
69623;SDS011;56843;52.020;5.670;2022-08-21T05:58:21;18.10;;;8.37;;
69623;SDS011;56843;52.020;5.670;2022-08-21T05:59:52;20.63;;;8.93;;
69623;SDS011;56843;52.020;5.670;2022-08-21T06:01:23;20.13;;;9.93;;
69623;SDS011;56843;52.020;5.670;2022-08-21T06:02:54;11.57;;;6.90;;
69623;SDS011;56843;52.020;5.670;2022-08-21T06:04:24;13.80;;;8.07;;
69623;SDS011;56843;52.020;5.670;2022-08-21T06:05:55;19.33;;;8.63;;
69623;SDS011;56843;52.020;5.670;2022-08-21T06:07:27;23.80;;;9.15;;
69623;SDS011;56843;52.020;5.670;2022-08-21T06:08:58;25.40;;;9.20;;
69623;SDS011;56843;52.020;5.670;2022-08-21T06:10:29;17.43;;;8.70;;
69623;SDS011;56843;52.020;5.670;2022-08-21T06:12:09;17.95;;;9.38;;
69623;SDS011;56843;52.020;5.670;2022-08-21T06:13:41;16.10;;;9.10;;
69623;SDS011;56843;52.020;5.670;2022-08-21T06:15:12;15.13;;;7.80;;
69623;SDS011;56843;52.020;5.670;2022-08-21T06:16:42;20.77;;;9.03;;
69623;SDS011;56843;52.020;5.670;2022-08-21T06:18:13;20.13;;;8.32;;
69623;SDS011;56843;52.020;5.670;2022-08-21T06:19:44;50.17;;;8.73;;
69623;SDS011;56843;52.020;5.670;2022-08-21T06:21:14;33.20;;;9.18;;
69623;SDS011;56843;52.020;5.670;2022-08-21T06:22:45;23.30;;;8.03;;
69623;SDS011;56843;52.020;5.670;2022-08-21T06:24:15;20.38;;;9.02;;
69623;SDS011;56843;52.020;5.670;2022-08-21T06:25:46;16.23;;;7.77;;
69623;SDS011;56843;52.020;5.670;2022-08-21T06:27:16;18.77;;;7.03;;
69623;SDS011;56843;52.020;5.670;2022-08-21T06:28:47;22.50;;;8.77;;
69623;SDS011;56843;52.020;5.670;2022-08-21T06:30:18;27.60;;;9.13;;
69623;SDS011;56843;52.020;5.670;2022-08-21T06:31:50;16.77;;;7.85;;
69623;SDS011;56843;52.020;5.670;2022-08-21T06:33:21;20.38;;;8.57;;
69623;SDS011;56843;52.020;5.670;2022-08-21T06:34:52;20.25;;;7.90;;
69623;SDS011;56843;52.020;5.670;2022-08-21T06:36:22;19.73;;;8.13;;
69623;SDS011;56843;52.020;5.670;2022-08-21T06:37:53;16.85;;;6.15;;
69623;SDS011;56843;52.020;5.670;2022-08-21T06:39:23;21.70;;;7.13;;
69623;SDS011;56843;52.020;5.670;2022-08-21T06:40:54;18.17;;;6.47;;
69623;SDS011;56843;52.020;5.670;2022-08-21T06:42:25;17.52;;;6.63;;
69623;SDS011;56843;52.020;5.670;2022-08-21T06:43:57;23.63;;;7.57;;
69623;SDS011;56843;52.020;5.670;2022-08-21T06:45:27;16.58;;;6.20;;
69623;SDS011;56843;52.020;5.670;2022-08-21T06:46:58;26.40;;;7.37;;
69623;SDS011;56843;52.020;5.670;2022-08-21T06:48:28;21.55;;;6.22;;
69623;SDS011;56843;52.020;5.670;2022-08-21T06:50:02;15.43;;;6.60;;
69623;SDS011;56843;52.020;5.670;2022-08-21T06:51:33;18.03;;;6.03;;
69623;SDS011;56843;52.020;5.670;2022-08-21T06:53:06;22.17;;;6.47;;
69623;SDS011;56843;52.020;5.670;2022-08-21T06:54:39;16.98;;;6.03;;
69623;SDS011;56843;52.020;5.670;2022-08-21T06:56:09;21.07;;;6.63;;
69623;SDS011;56843;52.020;5.670;2022-08-21T06:57:40;14.00;;;6.37;;
69623;SDS011;56843;52.020;5.670;2022-08-21T06:59:11;15.47;;;6.63;;
69623;SDS011;56843;52.020;5.670;2022-08-21T07:00:42;17.15;;;6.53;;
69623;SDS011;56843;52.020;5.670;2022-08-21T07:02:15;17.90;;;5.33;;
69623;SDS011;56843;52.020;5.670;2022-08-21T07:03:45;12.77;;;5.63;;
69623;SDS011;56843;52.020;5.670;2022-08-21T07:05:16;19.67;;;6.20;;
69623;SDS011;56843;52.020;5.670;2022-08-21T07:06:46;16.23;;;4.95;;
69623;SDS011;56843;52.020;5.670;2022-08-21T07:08:17;17.43;;;5.30;;
69623;SDS011;56843;52.020;5.670;2022-08-21T07:09:47;14.03;;;5.40;;
69623;SDS011;56843;52.020;5.670;2022-08-21T07:11:19;12.02;;;4.85;;
69623;SDS011;56843;52.020;5.670;2022-08-21T07:12:51;13.68;;;5.40;;
69623;SDS011;56843;52.020;5.670;2022-08-21T07:14:24;15.77;;;4.87;;
69623;SDS011;56843;52.020;5.670;2022-08-21T07:15:54;15.67;;;4.77;;
69623;SDS011;56843;52.020;5.670;2022-08-21T07:17:26;14.82;;;4.53;;
69623;SDS011;56843;52.020;5.670;2022-08-21T07:18:56;18.47;;;5.23;;
69623;SDS011;56843;52.020;5.670;2022-08-21T07:20:28;17.23;;;4.70;;
69623;SDS011;56843;52.020;5.670;2022-08-21T07:22:00;17.67;;;4.90;;
69623;SDS011;56843;52.020;5.670;2022-08-21T07:23:33;15.98;;;5.07;;
69623;SDS011;56843;52.020;5.670;2022-08-21T07:25:06;13.77;;;4.45;;
69623;SDS011;56843;52.020;5.670;2022-08-21T07:26:37;13.38;;;4.40;;
69623;SDS011;56843;52.020;5.670;2022-08-21T07:28:08;17.10;;;4.67;;
69623;SDS011;56843;52.020;5.670;2022-08-21T07:29:38;11.40;;;4.50;;
69623;SDS011;56843;52.020;5.670;2022-08-21T07:31:10;15.63;;;4.03;;
69623;SDS011;56843;52.020;5.670;2022-08-21T07:32:44;17.33;;;4.38;;
69623;SDS011;56843;52.020;5.670;2022-08-21T07:34:14;18.03;;;4.20;;
69623;SDS011;56843;52.020;5.670;2022-08-21T07:35:45;14.15;;;3.63;;
69623;SDS011;56843;52.020;5.670;2022-08-21T07:37:15;21.70;;;3.93;;
69623;SDS011;56843;52.020;5.670;2022-08-21T07:38:46;16.33;;;3.60;;
69623;SDS011;56843;52.020;5.670;2022-08-21T07:40:16;16.38;;;3.88;;
69623;SDS011;56843;52.020;5.670;2022-08-21T07:41:47;14.13;;;4.07;;
69623;SDS011;56843;52.020;5.670;2022-08-21T07:43:17;12.87;;;3.53;;
69623;SDS011;56843;52.020;5.670;2022-08-21T07:44:48;11.80;;;3.77;;
69623;SDS011;56843;52.020;5.670;2022-08-21T07:46:19;14.70;;;4.27;;
69623;SDS011;56843;52.020;5.670;2022-08-21T07:47:49;12.65;;;4.25;;
69623;SDS011;56843;52.020;5.670;2022-08-21T07:49:21;11.02;;;3.78;;
69623;SDS011;56843;52.020;5.670;2022-08-21T07:50:52;14.40;;;3.67;;
69623;SDS011;56843;52.020;5.670;2022-08-21T07:52:22;14.77;;;3.63;;
69623;SDS011;56843;52.020;5.670;2022-08-21T07:53:54;15.35;;;3.35;;
69623;SDS011;56843;52.020;5.670;2022-08-21T07:55:26;15.23;;;3.57;;
69623;SDS011;56843;52.020;5.670;2022-08-21T07:56:57;12.23;;;3.27;;
69623;SDS011;56843;52.020;5.670;2022-08-21T07:58:27;11.80;;;3.10;;
69623;SDS011;56843;52.020;5.670;2022-08-21T07:59:58;14.52;;;4.05;;
69623;SDS011;56843;52.020;5.670;2022-08-21T08:01:28;14.90;;;3.90;;
69623;SDS011;56843;52.020;5.670;2022-08-21T08:02:59;11.87;;;3.67;;
69623;SDS011;56843;52.020;5.670;2022-08-21T08:04:29;9.63;;;3.22;;
69623;SDS011;56843;52.020;5.670;2022-08-21T08:06:00;12.03;;;3.23;;
69623;SDS011;56843;52.020;5.670;2022-08-21T08:07:30;12.45;;;3.60;;
69623;SDS011;56843;52.020;5.670;2022-08-21T08:09:01;12.40;;;2.93;;
69623;SDS011;56843;52.020;5.670;2022-08-21T08:10:33;15.88;;;3.47;;
69623;SDS011;56843;52.020;5.670;2022-08-21T08:12:04;12.07;;;3.10;;
69623;SDS011;56843;52.020;5.670;2022-08-21T08:13:39;10.10;;;3.07;;
69623;SDS011;56843;52.020;5.670;2022-08-21T08:15:13;10.70;;;3.05;;
69623;SDS011;56843;52.020;5.670;2022-08-21T08:16:46;17.42;;;3.17;;
69623;SDS011;56843;52.020;5.670;2022-08-21T08:18:17;9.52;;;3.05;;
69623;SDS011;56843;52.020;5.670;2022-08-21T08:19:47;14.57;;;4.23;;
69623;SDS011;56843;52.020;5.670;2022-08-21T08:21:19;14.65;;;3.03;;
69623;SDS011;56843;52.020;5.670;2022-08-21T08:22:50;12.43;;;3.10;;
69623;SDS011;56843;52.020;5.670;2022-08-21T08:24:21;11.43;;;3.23;;
69623;SDS011;56843;52.020;5.670;2022-08-21T08:25:51;11.90;;;2.60;;
69623;SDS011;56843;52.020;5.670;2022-08-21T08:27:22;13.57;;;3.00;;
69623;SDS011;56843;52.020;5.670;2022-08-21T08:28:52;9.10;;;2.60;;
69623;SDS011;56843;52.020;5.670;2022-08-21T08:30:23;12.65;;;3.10;;
69623;SDS011;56843;52.020;5.670;2022-08-21T08:31:53;16.27;;;2.73;;
69623;SDS011;56843;52.020;5.670;2022-08-21T08:33:24;11.75;;;2.75;;
69623;SDS011;56843;52.020;5.670;2022-08-21T08:34:55;10.10;;;2.70;;
69623;SDS011;56843;52.020;5.670;2022-08-21T08:36:31;11.25;;;3.05;;
69623;SDS011;56843;52.020;5.670;2022-08-21T08:38:04;14.90;;;3.13;;
69623;SDS011;56843;52.020;5.670;2022-08-21T08:39:35;10.68;;;3.10;;
69623;SDS011;56843;52.020;5.670;2022-08-21T08:41:08;12.60;;;3.27;;
69623;SDS011;56843;52.020;5.670;2022-08-21T08:42:43;11.18;;;2.63;;
69623;SDS011;56843;52.020;5.670;2022-08-21T08:44:13;15.27;;;3.20;;
69623;SDS011;56843;52.020;5.670;2022-08-21T08:45:46;14.80;;;3.07;;
69623;SDS011;56843;52.020;5.670;2022-08-21T08:47:19;10.15;;;2.83;;
69623;SDS011;56843;52.020;5.670;2022-08-21T08:50:22;9.90;;;2.42;;
69623;SDS011;56843;52.020;5.670;2022-08-21T08:52:05;10.30;;;2.70;;
69623;SDS011;56843;52.020;5.670;2022-08-21T08:53:56;10.23;;;2.17;;
69623;SDS011;56843;52.020;5.670;2022-08-21T08:55:33;10.27;;;2.70;;
69623;SDS011;56843;52.020;5.670;2022-08-21T08:57:09;13.70;;;3.07;;
69623;SDS011;56843;52.020;5.670;2022-08-21T08:58:44;18.30;;;3.38;;
69623;SDS011;56843;52.020;5.670;2022-08-21T09:00:16;10.07;;;2.13;;
69623;SDS011;56843;52.020;5.670;2022-08-21T09:01:49;12.20;;;2.95;;
69623;SDS011;56843;52.020;5.670;2022-08-21T09:03:20;8.73;;;2.75;;
69623;SDS011;56843;52.020;5.670;2022-08-21T09:04:53;12.13;;;2.87;;
69623;SDS011;56843;52.020;5.670;2022-08-21T09:10:13;9.00;;;2.53;;